sensor_id;sensor_type;location;lat;lon;timestamp;temperature;humidity
48488;DHT22;34289;48.572;13.378;2022-10-19T00:01:50;12.50;99.90
48488;DHT22;34289;48.572;13.378;2022-10-19T00:04:16;12.50;99.90
48488;DHT22;34289;48.572;13.378;2022-10-19T00:06:43;12.80;99.90
48488;DHT22;34289;48.572;13.378;2022-10-19T00:09:14;13.30;99.90
48488;DHT22;34289;48.572;13.378;2022-10-19T00:11:43;12.50;99.90
48488;DHT22;34289;48.572;13.378;2022-10-19T00:14:18;12.60;99.90
48488;DHT22;34289;48.572;13.378;2022-10-19T00:16:44;12.60;99.90
48488;DHT22;34289;48.572;13.378;2022-10-19T00:19:21;12.60;99.90
48488;DHT22;34289;48.572;13.378;2022-10-19T00:21:47;12.60;99.90
48488;DHT22;34289;48.572;13.378;2022-10-19T00:24:13;12.60;99.90
48488;DHT22;34289;48.572;13.378;2022-10-19T00:26:38;12.90;99.90
48488;DHT22;34289;48.572;13.378;2022-10-19T00:29:04;12.60;99.90
48488;DHT22;34289;48.572;13.378;2022-10-19T00:31:30;12.60;99.90
48488;DHT22;34289;48.572;13.378;2022-10-19T00:33:56;12.70;99.90
48488;DHT22;34289;48.572;13.378;2022-10-19T00:36:25;12.80;99.90
48488;DHT22;34289;48.572;13.378;2022-10-19T00:38:51;12.80;99.90
48488;DHT22;34289;48.572;13.378;2022-10-19T00:41:18;12.80;99.90
48488;DHT22;34289;48.572;13.378;2022-10-19T00:44:53;12.80;99.90
48488;DHT22;34289;48.572;13.378;2022-10-19T00:46:52;12.90;99.90
48488;DHT22;34289;48.572;13.378;2022-10-19T00:49:23;12.80;99.90
48488;DHT22;34289;48.572;13.378;2022-10-19T00:52:00;12.80;99.90
48488;DHT22;34289;48.572;13.378;2022-10-19T00:54:27;12.80;99.90
48488;DHT22;34289;48.572;13.378;2022-10-19T00:56:55;12.90;99.90
48488;DHT22;34289;48.572;13.378;2022-10-19T00:59:23;12.90;99.90
48488;DHT22;34289;48.572;13.378;2022-10-19T01:01:51;13.00;99.90
48488;DHT22;34289;48.572;13.378;2022-10-19T01:04:20;13.00;99.90
48488;DHT22;34289;48.572;13.378;2022-10-19T01:06:46;13.00;99.90
48488;DHT22;34289;48.572;13.378;2022-10-19T01:09:12;13.10;99.90
48488;DHT22;34289;48.572;13.378;2022-10-19T01:19:55;13.20;99.90
48488;DHT22;34289;48.572;13.378;2022-10-19T01:22:55;13.20;99.90
48488;DHT22;34289;48.572;13.378;2022-10-19T01:25:35;13.20;99.90
48488;DHT22;34289;48.572;13.378;2022-10-19T01:30:42;13.20;99.90
48488;DHT22;34289;48.572;13.378;2022-10-19T01:36:02;13.20;99.90
48488;DHT22;34289;48.572;13.378;2022-10-19T01:38:41;13.20;99.90
48488;DHT22;34289;48.572;13.378;2022-10-19T01:44:10;13.40;99.90
48488;DHT22;34289;48.572;13.378;2022-10-19T01:46:39;13.30;99.90
48488;DHT22;34289;48.572;13.378;2022-10-19T01:49:14;13.30;99.90
48488;DHT22;34289;48.572;13.378;2022-10-19T01:51:45;13.30;99.90
48488;DHT22;34289;48.572;13.378;2022-10-19T01:54:14;13.40;99.90
48488;DHT22;34289;48.572;13.378;2022-10-19T01:56:43;13.40;99.90
48488;DHT22;34289;48.572;13.378;2022-10-19T01:59:10;13.60;99.90
48488;DHT22;34289;48.572;13.378;2022-10-19T02:01:41;13.40;99.90
48488;DHT22;34289;48.572;13.378;2022-10-19T02:04:09;13.40;99.90
48488;DHT22;34289;48.572;13.378;2022-10-19T02:06:35;13.30;99.90
48488;DHT22;34289;48.572;13.378;2022-10-19T02:09:02;13.40;99.90
48488;DHT22;34289;48.572;13.378;2022-10-19T02:11:28;13.40;99.90
48488;DHT22;34289;48.572;13.378;2022-10-19T02:14:02;13.40;99.90
48488;DHT22;34289;48.572;13.378;2022-10-19T02:16:37;13.30;99.90
48488;DHT22;34289;48.572;13.378;2022-10-19T02:19:05;13.40;99.90
48488;DHT22;34289;48.572;13.378;2022-10-19T02:21:33;13.40;99.90
48488;DHT22;34289;48.572;13.378;2022-10-19T02:23:59;13.50;99.90
48488;DHT22;34289;48.572;13.378;2022-10-19T02:26:25;13.40;99.90
48488;DHT22;34289;48.572;13.378;2022-10-19T02:28:53;13.30;99.90
48488;DHT22;34289;48.572;13.378;2022-10-19T02:31:20;13.30;99.90
48488;DHT22;34289;48.572;13.378;2022-10-19T02:33:45;13.40;99.90
48488;DHT22;34289;48.572;13.378;2022-10-19T02:36:11;13.40;99.90
48488;DHT22;34289;48.572;13.378;2022-10-19T02:38:37;13.40;99.90
48488;DHT22;34289;48.572;13.378;2022-10-19T02:43:47;13.50;99.90
48488;DHT22;34289;48.572;13.378;2022-10-19T02:46:19;13.50;99.90
48488;DHT22;34289;48.572;13.378;2022-10-19T02:48:48;13.50;99.90
48488;DHT22;34289;48.572;13.378;2022-10-19T02:51:35;13.50;99.90
48488;DHT22;34289;48.572;13.378;2022-10-19T02:54:01;13.50;99.90
48488;DHT22;34289;48.572;13.378;2022-10-19T02:56:27;13.50;99.90
48488;DHT22;34289;48.572;13.378;2022-10-19T02:58:53;13.50;99.90
48488;DHT22;34289;48.572;13.378;2022-10-19T03:01:19;13.50;99.90
48488;DHT22;34289;48.572;13.378;2022-10-19T03:03:45;13.60;99.90
48488;DHT22;34289;48.572;13.378;2022-10-19T03:06:11;13.50;99.90
48488;DHT22;34289;48.572;13.378;2022-10-19T03:08:37;13.50;99.90
48488;DHT22;34289;48.572;13.378;2022-10-19T03:11:02;13.50;99.90
48488;DHT22;34289;48.572;13.378;2022-10-19T03:13:28;13.50;99.90
48488;DHT22;34289;48.572;13.378;2022-10-19T03:15:53;13.50;99.90
48488;DHT22;34289;48.572;13.378;2022-10-19T03:18:19;13.50;99.90
48488;DHT22;34289;48.572;13.378;2022-10-19T03:20:46;13.50;99.90
48488;DHT22;34289;48.572;13.378;2022-10-19T03:23:11;13.60;99.90
48488;DHT22;34289;48.572;13.378;2022-10-19T03:25:37;13.50;99.90
48488;DHT22;34289;48.572;13.378;2022-10-19T03:28:05;13.50;99.90
48488;DHT22;34289;48.572;13.378;2022-10-19T03:30:31;13.50;99.90
48488;DHT22;34289;48.572;13.378;2022-10-19T03:32:56;13.50;99.90
48488;DHT22;34289;48.572;13.378;2022-10-19T03:35:22;13.50;99.90
48488;DHT22;34289;48.572;13.378;2022-10-19T03:37:47;13.50;99.90
48488;DHT22;34289;48.572;13.378;2022-10-19T03:40:13;13.60;99.90
48488;DHT22;34289;48.572;13.378;2022-10-19T03:42:39;13.50;99.90
48488;DHT22;34289;48.572;13.378;2022-10-19T03:45:05;13.60;99.90
48488;DHT22;34289;48.572;13.378;2022-10-19T03:47:30;13.60;99.90
48488;DHT22;34289;48.572;13.378;2022-10-19T03:49:56;13.60;99.90
48488;DHT22;34289;48.572;13.378;2022-10-19T03:52:21;13.60;99.90
48488;DHT22;34289;48.572;13.378;2022-10-19T03:54:50;13.60;99.90
48488;DHT22;34289;48.572;13.378;2022-10-19T03:57:16;13.60;99.90
48488;DHT22;34289;48.572;13.378;2022-10-19T03:59:42;13.60;99.90
48488;DHT22;34289;48.572;13.378;2022-10-19T04:02:07;13.60;99.90
48488;DHT22;34289;48.572;13.378;2022-10-19T04:04:33;13.60;99.90
48488;DHT22;34289;48.572;13.378;2022-10-19T04:06:58;13.60;99.90
48488;DHT22;34289;48.572;13.378;2022-10-19T04:09:24;13.60;99.90
48488;DHT22;34289;48.572;13.378;2022-10-19T04:11:52;13.60;99.90
48488;DHT22;34289;48.572;13.378;2022-10-19T04:14:19;13.60;99.90
48488;DHT22;34289;48.572;13.378;2022-10-19T04:16:46;13.60;99.90
48488;DHT22;34289;48.572;13.378;2022-10-19T04:19:14;13.60;99.90
48488;DHT22;34289;48.572;13.378;2022-10-19T04:21:40;13.60;99.90
48488;DHT22;34289;48.572;13.378;2022-10-19T04:24:13;13.70;99.90
48488;DHT22;34289;48.572;13.378;2022-10-19T04:26:41;13.50;99.90
48488;DHT22;34289;48.572;13.378;2022-10-19T04:29:07;13.50;99.90
48488;DHT22;34289;48.572;13.378;2022-10-19T04:31:33;13.60;99.90
48488;DHT22;34289;48.572;13.378;2022-10-19T04:33:59;13.70;99.90
48488;DHT22;34289;48.572;13.378;2022-10-19T04:36:25;13.60;99.90
48488;DHT22;34289;48.572;13.378;2022-10-19T04:38:50;13.60;99.90
48488;DHT22;34289;48.572;13.378;2022-10-19T04:41:18;13.60;99.90
48488;DHT22;34289;48.572;13.378;2022-10-19T04:43:44;13.70;99.90
48488;DHT22;34289;48.572;13.378;2022-10-19T04:46:13;13.60;99.90
48488;DHT22;34289;48.572;13.378;2022-10-19T04:48:39;13.50;99.90
48488;DHT22;34289;48.572;13.378;2022-10-19T04:51:05;13.50;99.90
48488;DHT22;34289;48.572;13.378;2022-10-19T04:53:32;13.40;99.90
48488;DHT22;34289;48.572;13.378;2022-10-19T04:56:08;13.40;99.90
48488;DHT22;34289;48.572;13.378;2022-10-19T04:58:36;13.30;99.90
48488;DHT22;34289;48.572;13.378;2022-10-19T05:01:23;13.50;99.90
48488;DHT22;34289;48.572;13.378;2022-10-19T05:03:52;13.40;99.90
48488;DHT22;34289;48.572;13.378;2022-10-19T05:06:19;13.40;99.90
48488;DHT22;34289;48.572;13.378;2022-10-19T05:08:47;13.40;99.90
48488;DHT22;34289;48.572;13.378;2022-10-19T05:11:16;13.60;99.90
48488;DHT22;34289;48.572;13.378;2022-10-19T05:13:43;13.30;99.90
48488;DHT22;34289;48.572;13.378;2022-10-19T05:16:14;13.40;99.90
48488;DHT22;34289;48.572;13.378;2022-10-19T05:18:40;13.50;99.90
48488;DHT22;34289;48.572;13.378;2022-10-19T05:21:11;13.50;99.90
48488;DHT22;34289;48.572;13.378;2022-10-19T05:23:38;13.30;99.90
48488;DHT22;34289;48.572;13.378;2022-10-19T05:26:09;14.30;99.90
48488;DHT22;34289;48.572;13.378;2022-10-19T05:28:35;13.20;99.90
48488;DHT22;34289;48.572;13.378;2022-10-19T05:31:11;13.20;99.90
48488;DHT22;34289;48.572;13.378;2022-10-19T05:33:38;13.30;99.90
48488;DHT22;34289;48.572;13.378;2022-10-19T05:38:35;14.80;99.90
48488;DHT22;34289;48.572;13.378;2022-10-19T05:41:00;13.40;99.90
48488;DHT22;34289;48.572;13.378;2022-10-19T05:43:26;13.40;99.90
48488;DHT22;34289;48.572;13.378;2022-10-19T05:45:52;14.50;99.90
48488;DHT22;34289;48.572;13.378;2022-10-19T05:48:17;14.90;99.90
48488;DHT22;34289;48.572;13.378;2022-10-19T05:50:52;13.40;99.90
48488;DHT22;34289;48.572;13.378;2022-10-19T05:53:18;14.10;99.90
48488;DHT22;34289;48.572;13.378;2022-10-19T05:55:44;13.40;99.90
48488;DHT22;34289;48.572;13.378;2022-10-19T05:58:10;13.40;99.90
48488;DHT22;34289;48.572;13.378;2022-10-19T06:00:55;13.40;99.90
48488;DHT22;34289;48.572;13.378;2022-10-19T06:03:21;13.40;99.90
48488;DHT22;34289;48.572;13.378;2022-10-19T06:05:48;13.40;99.90
48488;DHT22;34289;48.572;13.378;2022-10-19T06:08:18;13.40;99.90
48488;DHT22;34289;48.572;13.378;2022-10-19T06:10:45;13.40;99.90
48488;DHT22;34289;48.572;13.378;2022-10-19T06:13:12;14.50;99.90
48488;DHT22;34289;48.572;13.378;2022-10-19T06:15:38;14.10;99.90
48488;DHT22;34289;48.572;13.378;2022-10-19T06:18:09;13.50;99.90
48488;DHT22;34289;48.572;13.378;2022-10-19T06:20:36;13.40;99.90
48488;DHT22;34289;48.572;13.378;2022-10-19T06:23:02;14.90;99.90
48488;DHT22;34289;48.572;13.378;2022-10-19T06:25:30;14.10;99.90
48488;DHT22;34289;48.572;13.378;2022-10-19T06:27:56;13.30;99.90
48488;DHT22;34289;48.572;13.378;2022-10-19T06:30:22;13.20;99.90
48488;DHT22;34289;48.572;13.378;2022-10-19T06:32:47;13.20;99.90
48488;DHT22;34289;48.572;13.378;2022-10-19T06:35:13;13.20;99.90
48488;DHT22;34289;48.572;13.378;2022-10-19T06:37:40;13.20;99.90
48488;DHT22;34289;48.572;13.378;2022-10-19T06:40:06;13.20;99.90
48488;DHT22;34289;48.572;13.378;2022-10-19T06:42:32;13.30;99.90
48488;DHT22;34289;48.572;13.378;2022-10-19T06:44:58;13.40;99.90
48488;DHT22;34289;48.572;13.378;2022-10-19T06:47:23;13.50;99.90
48488;DHT22;34289;48.572;13.378;2022-10-19T06:49:57;13.50;99.90
48488;DHT22;34289;48.572;13.378;2022-10-19T06:52:23;13.50;99.90
48488;DHT22;34289;48.572;13.378;2022-10-19T06:54:48;13.60;99.90
48488;DHT22;34289;48.572;13.378;2022-10-19T06:57:14;13.80;99.90
48488;DHT22;34289;48.572;13.378;2022-10-19T06:59:54;15.00;99.90
48488;DHT22;34289;48.572;13.378;2022-10-19T07:02:20;14.50;99.90
48488;DHT22;34289;48.572;13.378;2022-10-19T07:04:46;13.80;99.90
48488;DHT22;34289;48.572;13.378;2022-10-19T07:07:11;15.00;99.90
48488;DHT22;34289;48.572;13.378;2022-10-19T07:09:37;13.60;99.90
48488;DHT22;34289;48.572;13.378;2022-10-19T07:12:03;14.30;99.90
48488;DHT22;34289;48.572;13.378;2022-10-19T07:14:29;13.50;99.90
48488;DHT22;34289;48.572;13.378;2022-10-19T07:16:55;13.50;99.90
48488;DHT22;34289;48.572;13.378;2022-10-19T07:19:24;13.40;99.90
48488;DHT22;34289;48.572;13.378;2022-10-19T07:21:50;13.50;99.90
48488;DHT22;34289;48.572;13.378;2022-10-19T07:24:16;13.60;99.90
48488;DHT22;34289;48.572;13.378;2022-10-19T07:26:42;13.70;99.90
48488;DHT22;34289;48.572;13.378;2022-10-19T07:29:07;13.80;99.90
48488;DHT22;34289;48.572;13.378;2022-10-19T07:31:33;13.90;99.90
48488;DHT22;34289;48.572;13.378;2022-10-19T07:34:01;14.50;99.90
48488;DHT22;34289;48.572;13.378;2022-10-19T07:36:29;13.90;99.90
48488;DHT22;34289;48.572;13.378;2022-10-19T07:38:55;13.90;99.90
48488;DHT22;34289;48.572;13.378;2022-10-19T07:41:22;13.90;99.90
48488;DHT22;34289;48.572;13.378;2022-10-19T07:43:49;14.50;99.90
48488;DHT22;34289;48.572;13.378;2022-10-19T07:46:17;13.80;99.90
48488;DHT22;34289;48.572;13.378;2022-10-19T07:48:44;13.80;99.90
48488;DHT22;34289;48.572;13.378;2022-10-19T07:51:11;13.90;99.90
48488;DHT22;34289;48.572;13.378;2022-10-19T07:53:38;14.70;99.90
48488;DHT22;34289;48.572;13.378;2022-10-19T07:56:04;14.10;99.90
48488;DHT22;34289;48.572;13.378;2022-10-19T07:58:30;14.20;99.90
48488;DHT22;34289;48.572;13.378;2022-10-19T08:01:18;14.30;99.90
48488;DHT22;34289;48.572;13.378;2022-10-19T08:03:44;15.50;99.90
48488;DHT22;34289;48.572;13.378;2022-10-19T08:06:12;14.40;99.90
48488;DHT22;34289;48.572;13.378;2022-10-19T08:08:39;14.40;99.90
48488;DHT22;34289;48.572;13.378;2022-10-19T08:11:09;14.30;99.90
48488;DHT22;34289;48.572;13.378;2022-10-19T08:13:37;14.30;99.90
48488;DHT22;34289;48.572;13.378;2022-10-19T08:16:03;14.20;99.90
48488;DHT22;34289;48.572;13.378;2022-10-19T08:18:29;14.10;99.90
48488;DHT22;34289;48.572;13.378;2022-10-19T08:20:55;14.20;99.90
48488;DHT22;34289;48.572;13.378;2022-10-19T08:23:21;14.50;99.90
48488;DHT22;34289;48.572;13.378;2022-10-19T08:25:47;14.20;99.90
48488;DHT22;34289;48.572;13.378;2022-10-19T08:28:13;14.30;99.90
48488;DHT22;34289;48.572;13.378;2022-10-19T08:30:39;14.40;99.90
48488;DHT22;34289;48.572;13.378;2022-10-19T08:33:05;14.60;99.90
48488;DHT22;34289;48.572;13.378;2022-10-19T08:35:35;14.70;99.90
48488;DHT22;34289;48.572;13.378;2022-10-19T08:38:01;14.80;99.90
48488;DHT22;34289;48.572;13.378;2022-10-19T08:40:28;16.10;99.90
48488;DHT22;34289;48.572;13.378;2022-10-19T08:45:36;15.10;99.90
48488;DHT22;34289;48.572;13.378;2022-10-19T08:48:26;15.30;99.90
48488;DHT22;34289;48.572;13.378;2022-10-19T08:50:53;15.40;99.90
48488;DHT22;34289;48.572;13.378;2022-10-19T08:53:26;15.40;99.90
48488;DHT22;34289;48.572;13.378;2022-10-19T08:56:03;15.50;99.90
48488;DHT22;34289;48.572;13.378;2022-10-19T09:04:53;15.60;99.90
48488;DHT22;34289;48.572;13.378;2022-10-19T09:07:34;15.60;99.90
48488;DHT22;34289;48.572;13.378;2022-10-19T09:12:47;15.90;99.90
48488;DHT22;34289;48.572;13.378;2022-10-19T09:15:19;16.10;99.90
48488;DHT22;34289;48.572;13.378;2022-10-19T09:17:46;16.40;99.90
48488;DHT22;34289;48.572;13.378;2022-10-19T09:22:41;17.10;99.90
48488;DHT22;34289;48.572;13.378;2022-10-19T09:25:18;17.10;99.90
48488;DHT22;34289;48.572;13.378;2022-10-19T09:27:47;17.00;99.90
48488;DHT22;34289;48.572;13.378;2022-10-19T09:30:18;16.90;99.90
48488;DHT22;34289;48.572;13.378;2022-10-19T09:32:46;16.90;99.90
48488;DHT22;34289;48.572;13.378;2022-10-19T09:35:52;16.90;99.90
48488;DHT22;34289;48.572;13.378;2022-10-19T09:38:14;16.90;99.90
48488;DHT22;34289;48.572;13.378;2022-10-19T09:40:41;17.00;99.90
48488;DHT22;34289;48.572;13.378;2022-10-19T09:43:08;17.10;99.90
48488;DHT22;34289;48.572;13.378;2022-10-19T09:46:02;17.30;99.90
48488;DHT22;34289;48.572;13.378;2022-10-19T09:51:13;17.00;99.90
48488;DHT22;34289;48.572;13.378;2022-10-19T09:53:53;16.90;99.90
48488;DHT22;34289;48.572;13.378;2022-10-19T09:56:26;16.70;99.90
48488;DHT22;34289;48.572;13.378;2022-10-19T09:58:57;16.50;99.90
48488;DHT22;34289;48.572;13.378;2022-10-19T10:01:33;16.60;99.90
48488;DHT22;34289;48.572;13.378;2022-10-19T10:04:05;16.70;99.90
48488;DHT22;34289;48.572;13.378;2022-10-19T10:06:33;18.20;99.90
48488;DHT22;34289;48.572;13.378;2022-10-19T10:08:59;17.40;99.90
48488;DHT22;34289;48.572;13.378;2022-10-19T10:13:57;17.30;99.90
48488;DHT22;34289;48.572;13.378;2022-10-19T10:16:28;17.60;99.90
48488;DHT22;34289;48.572;13.378;2022-10-19T10:18:55;17.90;99.90
48488;DHT22;34289;48.572;13.378;2022-10-19T10:21:23;18.20;99.90
48488;DHT22;34289;48.572;13.378;2022-10-19T10:26:52;17.00;99.90
48488;DHT22;34289;48.572;13.378;2022-10-19T10:29:33;16.70;99.90
48488;DHT22;34289;48.572;13.378;2022-10-19T10:32:12;16.70;99.90
48488;DHT22;34289;48.572;13.378;2022-10-19T10:34:43;16.80;99.90
48488;DHT22;34289;48.572;13.378;2022-10-19T10:37:27;17.10;99.90
48488;DHT22;34289;48.572;13.378;2022-10-19T10:39:55;17.50;99.90
48488;DHT22;34289;48.572;13.378;2022-10-19T10:42:31;17.90;99.90
48488;DHT22;34289;48.572;13.378;2022-10-19T10:45:00;18.30;99.90
48488;DHT22;34289;48.572;13.378;2022-10-19T10:47:26;18.60;99.90
48488;DHT22;34289;48.572;13.378;2022-10-19T10:50:02;18.60;99.90
48488;DHT22;34289;48.572;13.378;2022-10-19T10:52:30;18.50;99.90
48488;DHT22;34289;48.572;13.378;2022-10-19T10:55:16;18.70;99.90
48488;DHT22;34289;48.572;13.378;2022-10-19T11:00:38;18.60;99.90
48488;DHT22;34289;48.572;13.378;2022-10-19T11:03:15;18.80;99.90
48488;DHT22;34289;48.572;13.378;2022-10-19T11:05:46;18.70;99.90
48488;DHT22;34289;48.572;13.378;2022-10-19T11:13:38;18.60;99.90
48488;DHT22;34289;48.572;13.378;2022-10-19T11:18:46;18.50;99.90
48488;DHT22;34289;48.572;13.378;2022-10-19T11:24:22;19.10;99.90
48488;DHT22;34289;48.572;13.378;2022-10-19T11:35:40;19.10;99.90
48488;DHT22;34289;48.572;13.378;2022-10-19T11:38:27;19.40;99.90
48488;DHT22;34289;48.572;13.378;2022-10-19T11:46:08;18.60;99.90
48488;DHT22;34289;48.572;13.378;2022-10-19T11:56:49;19.20;99.90
48488;DHT22;34289;48.572;13.378;2022-10-19T11:59:46;19.40;99.90
48488;DHT22;34289;48.572;13.378;2022-10-19T12:10:42;20.20;99.90
48488;DHT22;34289;48.572;13.378;2022-10-19T12:13:15;20.00;99.90
48488;DHT22;34289;48.572;13.378;2022-10-19T12:15:46;19.80;99.90
48488;DHT22;34289;48.572;13.378;2022-10-19T12:18:22;19.80;99.90
48488;DHT22;34289;48.572;13.378;2022-10-19T12:20:51;19.80;99.90
48488;DHT22;34289;48.572;13.378;2022-10-19T12:23:39;20.20;99.90
48488;DHT22;34289;48.572;13.378;2022-10-19T12:26:08;20.40;99.90
48488;DHT22;34289;48.572;13.378;2022-10-19T12:28:37;20.30;99.90
48488;DHT22;34289;48.572;13.378;2022-10-19T12:31:05;20.40;99.90
48488;DHT22;34289;48.572;13.378;2022-10-19T12:39:12;20.50;99.90
48488;DHT22;34289;48.572;13.378;2022-10-19T12:44:36;21.40;99.90
48488;DHT22;34289;48.572;13.378;2022-10-19T12:47:36;21.60;99.90
48488;DHT22;34289;48.572;13.378;2022-10-19T12:50:02;21.40;99.90
48488;DHT22;34289;48.572;13.378;2022-10-19T12:52:44;21.40;99.90
48488;DHT22;34289;48.572;13.378;2022-10-19T12:55:24;21.20;99.90
48488;DHT22;34289;48.572;13.378;2022-10-19T12:58:05;21.40;99.90
48488;DHT22;34289;48.572;13.378;2022-10-19T13:00:39;21.20;99.90
48488;DHT22;34289;48.572;13.378;2022-10-19T13:03:06;21.30;99.90
48488;DHT22;34289;48.572;13.378;2022-10-19T13:05:33;21.40;99.90
48488;DHT22;34289;48.572;13.378;2022-10-19T13:08:01;21.80;99.90
48488;DHT22;34289;48.572;13.378;2022-10-19T13:10:29;21.60;99.90
48488;DHT22;34289;48.572;13.378;2022-10-19T13:12:56;21.60;99.90
48488;DHT22;34289;48.572;13.378;2022-10-19T13:18:04;22.00;99.90
48488;DHT22;34289;48.572;13.378;2022-10-19T13:25:30;21.70;99.90
48488;DHT22;34289;48.572;13.378;2022-10-19T13:35:47;23.50;99.90
48488;DHT22;34289;48.572;13.378;2022-10-19T13:43:17;23.70;96.90
48488;DHT22;34289;48.572;13.378;2022-10-19T13:46:14;23.00;98.40
48488;DHT22;34289;48.572;13.378;2022-10-19T13:52:01;23.90;98.20
48488;DHT22;34289;48.572;13.378;2022-10-19T13:57:50;26.90;96.70
48488;DHT22;34289;48.572;13.378;2022-10-19T14:11:29;31.50;83.90
48488;DHT22;34289;48.572;13.378;2022-10-19T14:16:54;33.20;76.10
48488;DHT22;34289;48.572;13.378;2022-10-19T14:19:23;34.00;74.60
48488;DHT22;34289;48.572;13.378;2022-10-19T14:21:55;34.80;72.70
48488;DHT22;34289;48.572;13.378;2022-10-19T14:24:30;34.80;72.00
48488;DHT22;34289;48.572;13.378;2022-10-19T14:26:59;35.00;70.90
48488;DHT22;34289;48.572;13.378;2022-10-19T14:29:25;34.80;72.50
48488;DHT22;34289;48.572;13.378;2022-10-19T14:31:51;35.00;70.20
48488;DHT22;34289;48.572;13.378;2022-10-19T14:34:17;35.10;69.80
48488;DHT22;34289;48.572;13.378;2022-10-19T14:36:46;34.90;68.40
48488;DHT22;34289;48.572;13.378;2022-10-19T14:39:30;32.90;69.20
48488;DHT22;34289;48.572;13.378;2022-10-19T14:41:56;29.30;74.30
48488;DHT22;34289;48.572;13.378;2022-10-19T14:44:41;26.00;79.70
48488;DHT22;34289;48.572;13.378;2022-10-19T14:47:21;23.60;84.60
48488;DHT22;34289;48.572;13.378;2022-10-19T14:49:48;22.10;88.70
48488;DHT22;34289;48.572;13.378;2022-10-19T14:52:19;21.20;91.40
48488;DHT22;34289;48.572;13.378;2022-10-19T14:54:49;20.50;92.40
48488;DHT22;34289;48.572;13.378;2022-10-19T14:57:18;20.40;93.30
48488;DHT22;34289;48.572;13.378;2022-10-19T14:59:46;20.30;94.60
48488;DHT22;34289;48.572;13.378;2022-10-19T15:02:14;20.10;94.80
48488;DHT22;34289;48.572;13.378;2022-10-19T15:04:41;19.60;95.60
48488;DHT22;34289;48.572;13.378;2022-10-19T15:10:00;19.10;98.60
48488;DHT22;34289;48.572;13.378;2022-10-19T15:12:32;19.00;99.90
48488;DHT22;34289;48.572;13.378;2022-10-19T15:14:58;18.90;99.90
48488;DHT22;34289;48.572;13.378;2022-10-19T15:17:29;18.80;99.90
48488;DHT22;34289;48.572;13.378;2022-10-19T15:19:57;18.70;99.90
48488;DHT22;34289;48.572;13.378;2022-10-19T15:25:25;18.60;99.90
48488;DHT22;34289;48.572;13.378;2022-10-19T15:27:52;18.60;99.90
48488;DHT22;34289;48.572;13.378;2022-10-19T15:32:51;18.30;99.90
48488;DHT22;34289;48.572;13.378;2022-10-19T15:37:44;17.80;99.90
48488;DHT22;34289;48.572;13.378;2022-10-19T15:40:21;17.70;99.90
48488;DHT22;34289;48.572;13.378;2022-10-19T15:42:47;17.50;99.90
48488;DHT22;34289;48.572;13.378;2022-10-19T15:45:34;17.30;99.90
48488;DHT22;34289;48.572;13.378;2022-10-19T15:50:48;16.90;99.90
48488;DHT22;34289;48.572;13.378;2022-10-19T15:53:17;16.60;99.90
48488;DHT22;34289;48.572;13.378;2022-10-19T15:55:44;16.30;99.90
48488;DHT22;34289;48.572;13.378;2022-10-19T15:58:10;16.00;99.90
48488;DHT22;34289;48.572;13.378;2022-10-19T16:00:37;15.80;99.90
48488;DHT22;34289;48.572;13.378;2022-10-19T16:03:02;15.70;99.90
48488;DHT22;34289;48.572;13.378;2022-10-19T16:05:29;15.60;99.90
48488;DHT22;34289;48.572;13.378;2022-10-19T16:07:55;15.50;99.90
48488;DHT22;34289;48.572;13.378;2022-10-19T16:10:23;15.40;99.90
48488;DHT22;34289;48.572;13.378;2022-10-19T16:12:55;15.20;99.90
48488;DHT22;34289;48.572;13.378;2022-10-19T16:15:22;15.10;99.90
48488;DHT22;34289;48.572;13.378;2022-10-19T16:18:05;14.90;99.90
48488;DHT22;34289;48.572;13.378;2022-10-19T16:20:31;14.70;99.90
48488;DHT22;34289;48.572;13.378;2022-10-19T16:22:57;14.40;99.90
48488;DHT22;34289;48.572;13.378;2022-10-19T16:25:23;14.10;99.90
48488;DHT22;34289;48.572;13.378;2022-10-19T16:27:48;14.00;99.90
48488;DHT22;34289;48.572;13.378;2022-10-19T16:30:14;13.90;99.90
48488;DHT22;34289;48.572;13.378;2022-10-19T16:32:40;13.80;99.90
48488;DHT22;34289;48.572;13.378;2022-10-19T16:35:06;13.70;99.90
48488;DHT22;34289;48.572;13.378;2022-10-19T16:37:35;13.60;99.90
48488;DHT22;34289;48.572;13.378;2022-10-19T16:40:01;13.80;99.90
48488;DHT22;34289;48.572;13.378;2022-10-19T16:42:28;13.40;99.90
48488;DHT22;34289;48.572;13.378;2022-10-19T16:44:54;13.40;99.90
48488;DHT22;34289;48.572;13.378;2022-10-19T16:47:20;13.40;99.90
48488;DHT22;34289;48.572;13.378;2022-10-19T16:49:45;13.10;99.90
48488;DHT22;34289;48.572;13.378;2022-10-19T16:52:14;13.00;99.90
48488;DHT22;34289;48.572;13.378;2022-10-19T16:54:40;13.00;99.90
48488;DHT22;34289;48.572;13.378;2022-10-19T16:57:05;12.90;99.90
48488;DHT22;34289;48.572;13.378;2022-10-19T16:59:31;12.90;99.90
48488;DHT22;34289;48.572;13.378;2022-10-19T17:01:57;12.80;99.90
48488;DHT22;34289;48.572;13.378;2022-10-19T17:04:26;13.00;99.90
48488;DHT22;34289;48.572;13.378;2022-10-19T17:06:51;12.70;99.90
48488;DHT22;34289;48.572;13.378;2022-10-19T17:09:17;12.60;99.90
48488;DHT22;34289;48.572;13.378;2022-10-19T17:11:42;12.60;99.90
48488;DHT22;34289;48.572;13.378;2022-10-19T17:14:10;12.40;99.90
48488;DHT22;34289;48.572;13.378;2022-10-19T17:16:37;12.50;99.90
48488;DHT22;34289;48.572;13.378;2022-10-19T17:19:06;12.20;99.90
48488;DHT22;34289;48.572;13.378;2022-10-19T17:21:34;12.40;99.90
48488;DHT22;34289;48.572;13.378;2022-10-19T17:24:05;12.10;99.90
48488;DHT22;34289;48.572;13.378;2022-10-19T17:26:39;12.00;99.90
48488;DHT22;34289;48.572;13.378;2022-10-19T17:29:07;12.00;99.90
48488;DHT22;34289;48.572;13.378;2022-10-19T17:31:34;11.90;99.90
48488;DHT22;34289;48.572;13.378;2022-10-19T17:34:00;12.40;99.90
48488;DHT22;34289;48.572;13.378;2022-10-19T17:36:28;11.90;99.90
48488;DHT22;34289;48.572;13.378;2022-10-19T17:38:56;11.70;99.90
48488;DHT22;34289;48.572;13.378;2022-10-19T17:41:22;11.80;99.90
48488;DHT22;34289;48.572;13.378;2022-10-19T17:43:49;11.70;99.90
48488;DHT22;34289;48.572;13.378;2022-10-19T17:46:23;12.30;99.90
48488;DHT22;34289;48.572;13.378;2022-10-19T17:48:49;11.50;99.90
48488;DHT22;34289;48.572;13.378;2022-10-19T17:51:20;11.40;99.90
48488;DHT22;34289;48.572;13.378;2022-10-19T17:53:48;12.10;99.90
48488;DHT22;34289;48.572;13.378;2022-10-19T17:56:17;11.30;99.90
48488;DHT22;34289;48.572;13.378;2022-10-19T17:58:43;11.20;99.90
48488;DHT22;34289;48.572;13.378;2022-10-19T18:01:11;11.10;99.90